KRAL

Riverside Municipal Airport

Riverside, California, USA
METAR KRAL 240753Z AUTO VRB03KT 10SM OVC011 14/12 A3004 RMK AO2 SLP162 T01440117 402330133
Observed Flight Rules
May-24 @ 07:53 UTC (18 minutes ago) Marginal Visual Flight Rules
Wind Visibility Clouds
Variable at 3 knots 10 miles
  • Overcast at 1,100' AGL
Temperatures Readings
Current 14°C / 57°F
Dewpoint 12°C / 54°F
Humidity 88%
Altimeter 30.04" Hg
Pressure 1016.2 hPa
Elevation 252
METAR KRAL 240753Z AUTO VRB03KT 10SM OVC011 14/12 A3004 RMK AO2 SLP162 T01440117 402330133
Observed Flight Rules
May-24 @ 07:53 UTC
(18 minutes ago)
MVFR
Wind Visibility
Variable at 3 knots 10 miles
Clouds
  • Overcast at 1,100' AGL
Temperature Dewpoint
14°C / 57°F 12°C / 54°F
Humidity Altimeter Pressure
88% 30.04" Hg 1016.2 hPa